Terminal Aerodrome Forecast
Issued by NWS

Home | Current Version | Previous Version | Text Only | Print | Product List | Glossary On
Versions: 1 2 3 4 5 6 7 8 9 10 11 12 13 14 15 16
000
FTPA31 PHFO 210520
TAFHMK
TAF
PHMK 210520Z 2106/2206 04012G21KT P6SM VCSH SCT025 SCT035
     FM211900 04016G25KT P6SM VCSH SCT025 SCT035
     FM220500 04010G15KT P6SM VCSH SCT025 SCT035=

USA.gov is the U.S. government's official web portal to all federal, state and local government web resources and services.